sensor_id;sensor_type;location;lat;lon;timestamp;temperature;humidity
26803;DHT22;14378;51.796;5.808;2023-01-15T00:05:43;8.60;99.90
26803;DHT22;14378;51.796;5.808;2023-01-15T00:07:44;8.60;99.90
26803;DHT22;14378;51.796;5.808;2023-01-15T00:09:49;8.60;99.90
26803;DHT22;14378;51.796;5.808;2023-01-15T00:11:50;8.60;99.90
26803;DHT22;14378;51.796;5.808;2023-01-15T00:13:50;8.60;99.90
26803;DHT22;14378;51.796;5.808;2023-01-15T00:15:52;8.50;99.90
26803;DHT22;14378;51.796;5.808;2023-01-15T00:17:53;8.60;99.90
26803;DHT22;14378;51.796;5.808;2023-01-15T00:19:57;8.50;99.90
26803;DHT22;14378;51.796;5.808;2023-01-15T00:21:57;8.50;99.90
26803;DHT22;14378;51.796;5.808;2023-01-15T00:23:59;8.50;99.90
26803;DHT22;14378;51.796;5.808;2023-01-15T00:26:20;8.50;99.90
26803;DHT22;14378;51.796;5.808;2023-01-15T00:28:39;8.50;99.90
26803;DHT22;14378;51.796;5.808;2023-01-15T00:30:43;8.50;99.90
26803;DHT22;14378;51.796;5.808;2023-01-15T00:32:43;8.50;99.90
26803;DHT22;14378;51.796;5.808;2023-01-15T00:34:44;8.50;99.90
26803;DHT22;14378;51.796;5.808;2023-01-15T00:36:45;8.50;99.90
26803;DHT22;14378;51.796;5.808;2023-01-15T00:38:46;8.50;99.90
26803;DHT22;14378;51.796;5.808;2023-01-15T00:40:47;8.50;99.90
26803;DHT22;14378;51.796;5.808;2023-01-15T00:42:52;8.60;99.90
26803;DHT22;14378;51.796;5.808;2023-01-15T00:44:53;8.60;99.90
26803;DHT22;14378;51.796;5.808;2023-01-15T00:46:54;8.60;99.90
26803;DHT22;14378;51.796;5.808;2023-01-15T00:48:55;8.50;99.90
26803;DHT22;14378;51.796;5.808;2023-01-15T00:50:56;8.50;99.90
26803;DHT22;14378;51.796;5.808;2023-01-15T00:52:57;8.50;99.90
26803;DHT22;14378;51.796;5.808;2023-01-15T00:54:58;8.40;99.90
26803;DHT22;14378;51.796;5.808;2023-01-15T00:56:59;8.40;99.90
26803;DHT22;14378;51.796;5.808;2023-01-15T00:59:03;8.40;99.90
26803;DHT22;14378;51.796;5.808;2023-01-15T01:03:09;8.50;99.90
26803;DHT22;14378;51.796;5.808;2023-01-15T01:05:10;8.40;99.90
26803;DHT22;14378;51.796;5.808;2023-01-15T01:07:12;8.40;99.90
26803;DHT22;14378;51.796;5.808;2023-01-15T01:09:14;8.40;99.90
26803;DHT22;14378;51.796;5.808;2023-01-15T01:11:23;8.40;99.90
26803;DHT22;14378;51.796;5.808;2023-01-15T01:13:27;8.30;99.90
26803;DHT22;14378;51.796;5.808;2023-01-15T01:15:27;8.30;99.90
26803;DHT22;14378;51.796;5.808;2023-01-15T01:17:30;8.30;99.90
26803;DHT22;14378;51.796;5.808;2023-01-15T01:19:31;8.30;99.90
26803;DHT22;14378;51.796;5.808;2023-01-15T01:21:32;8.30;99.90
26803;DHT22;14378;51.796;5.808;2023-01-15T01:23:33;8.30;99.90
26803;DHT22;14378;51.796;5.808;2023-01-15T01:25:34;8.30;99.90
26803;DHT22;14378;51.796;5.808;2023-01-15T01:27:43;8.30;99.90
26803;DHT22;14378;51.796;5.808;2023-01-15T01:29:44;8.30;99.90
26803;DHT22;14378;51.796;5.808;2023-01-15T01:31:46;8.20;99.90
26803;DHT22;14378;51.796;5.808;2023-01-15T01:33:52;8.20;99.90
26803;DHT22;14378;51.796;5.808;2023-01-15T01:35:54;8.30;99.90
26803;DHT22;14378;51.796;5.808;2023-01-15T01:37:55;8.30;99.90
26803;DHT22;14378;51.796;5.808;2023-01-15T01:39:57;8.30;99.90
26803;DHT22;14378;51.796;5.808;2023-01-15T01:41:58;8.30;99.90
26803;DHT22;14378;51.796;5.808;2023-01-15T01:45:59;8.20;99.90
26803;DHT22;14378;51.796;5.808;2023-01-15T01:48:04;8.20;99.90
26803;DHT22;14378;51.796;5.808;2023-01-15T01:50:09;8.10;99.90
26803;DHT22;14378;51.796;5.808;2023-01-15T01:52:16;8.10;99.90
26803;DHT22;14378;51.796;5.808;2023-01-15T01:54:20;8.10;99.90
26803;DHT22;14378;51.796;5.808;2023-01-15T01:56:25;8.10;99.90
26803;DHT22;14378;51.796;5.808;2023-01-15T01:58:29;8.10;99.90
26803;DHT22;14378;51.796;5.808;2023-01-15T02:00:34;8.10;99.90
26803;DHT22;14378;51.796;5.808;2023-01-15T02:02:35;8.10;99.90
26803;DHT22;14378;51.796;5.808;2023-01-15T02:04:36;8.10;99.90
26803;DHT22;14378;51.796;5.808;2023-01-15T02:06:41;8.10;99.90
26803;DHT22;14378;51.796;5.808;2023-01-15T02:08:42;8.10;99.90
26803;DHT22;14378;51.796;5.808;2023-01-15T02:10:45;8.10;99.90
26803;DHT22;14378;51.796;5.808;2023-01-15T02:13:02;8.10;99.90
26803;DHT22;14378;51.796;5.808;2023-01-15T02:15:12;8.10;99.90
26803;DHT22;14378;51.796;5.808;2023-01-15T02:17:23;8.10;99.90
26803;DHT22;14378;51.796;5.808;2023-01-15T02:28:56;8.00;99.90
26803;DHT22;14378;51.796;5.808;2023-01-15T02:33:25;8.00;99.90
26803;DHT22;14378;51.796;5.808;2023-01-15T02:35:35;8.00;99.90
26803;DHT22;14378;51.796;5.808;2023-01-15T02:37:45;8.00;99.90
26803;DHT22;14378;51.796;5.808;2023-01-15T02:39:50;8.00;99.90
26803;DHT22;14378;51.796;5.808;2023-01-15T02:41:54;8.00;99.90
26803;DHT22;14378;51.796;5.808;2023-01-15T02:44:03;8.00;99.90
26803;DHT22;14378;51.796;5.808;2023-01-15T02:46:05;7.90;99.90
26803;DHT22;14378;51.796;5.808;2023-01-15T02:48:12;7.90;99.90
26803;DHT22;14378;51.796;5.808;2023-01-15T02:50:17;7.90;99.90
26803;DHT22;14378;51.796;5.808;2023-01-15T02:52:26;7.90;99.90
26803;DHT22;14378;51.796;5.808;2023-01-15T02:54:33;7.90;99.90
26803;DHT22;14378;51.796;5.808;2023-01-15T02:56:36;7.90;99.90
26803;DHT22;14378;51.796;5.808;2023-01-15T02:58:41;7.90;99.90
26803;DHT22;14378;51.796;5.808;2023-01-15T03:00:47;7.80;99.90
26803;DHT22;14378;51.796;5.808;2023-01-15T03:02:55;7.90;99.90
26803;DHT22;14378;51.796;5.808;2023-01-15T03:05:08;7.80;99.90
26803;DHT22;14378;51.796;5.808;2023-01-15T03:07:30;7.80;99.90
26803;DHT22;14378;51.796;5.808;2023-01-15T03:09:33;7.80;99.90
26803;DHT22;14378;51.796;5.808;2023-01-15T03:11:36;7.80;99.90
26803;DHT22;14378;51.796;5.808;2023-01-15T03:16:12;7.70;99.90
26803;DHT22;14378;51.796;5.808;2023-01-15T03:20:59;7.70;99.90
26803;DHT22;14378;51.796;5.808;2023-01-15T03:23:07;7.70;99.90
26803;DHT22;14378;51.796;5.808;2023-01-15T03:25:25;7.70;99.90
26803;DHT22;14378;51.796;5.808;2023-01-15T03:27:28;7.70;99.90
26803;DHT22;14378;51.796;5.808;2023-01-15T03:29:35;7.70;99.90
26803;DHT22;14378;51.796;5.808;2023-01-15T03:31:37;7.70;99.90
26803;DHT22;14378;51.796;5.808;2023-01-15T03:33:39;7.70;99.90
26803;DHT22;14378;51.796;5.808;2023-01-15T03:35:50;7.70;99.90
26803;DHT22;14378;51.796;5.808;2023-01-15T03:38:08;7.70;99.90
26803;DHT22;14378;51.796;5.808;2023-01-15T03:40:10;7.70;99.90
26803;DHT22;14378;51.796;5.808;2023-01-15T03:44:37;7.70;99.90
26803;DHT22;14378;51.796;5.808;2023-01-15T03:49:25;7.70;99.90
26803;DHT22;14378;51.796;5.808;2023-01-15T03:53:53;7.70;99.90
26803;DHT22;14378;51.796;5.808;2023-01-15T03:58:26;7.70;99.90
26803;DHT22;14378;51.796;5.808;2023-01-15T04:00:36;7.60;99.90
26803;DHT22;14378;51.796;5.808;2023-01-15T04:02:39;7.60;99.90
26803;DHT22;14378;51.796;5.808;2023-01-15T04:04:43;7.60;99.90
26803;DHT22;14378;51.796;5.808;2023-01-15T04:06:45;7.60;99.90
26803;DHT22;14378;51.796;5.808;2023-01-15T04:08:47;7.60;99.90
26803;DHT22;14378;51.796;5.808;2023-01-15T04:10:58;7.60;99.90
26803;DHT22;14378;51.796;5.808;2023-01-15T04:13:03;7.60;99.90
26803;DHT22;14378;51.796;5.808;2023-01-15T04:15:04;7.60;99.90
26803;DHT22;14378;51.796;5.808;2023-01-15T04:17:05;7.50;99.90
26803;DHT22;14378;51.796;5.808;2023-01-15T04:19:06;7.60;99.90
26803;DHT22;14378;51.796;5.808;2023-01-15T04:21:11;7.50;99.90
26803;DHT22;14378;51.796;5.808;2023-01-15T04:23:12;7.50;99.90
26803;DHT22;14378;51.796;5.808;2023-01-15T04:25:13;7.50;99.90
26803;DHT22;14378;51.796;5.808;2023-01-15T04:27:14;7.50;99.90
26803;DHT22;14378;51.796;5.808;2023-01-15T04:29:15;7.60;99.90
26803;DHT22;14378;51.796;5.808;2023-01-15T04:31:16;7.50;99.90
26803;DHT22;14378;51.796;5.808;2023-01-15T04:33:17;7.50;99.90
26803;DHT22;14378;51.796;5.808;2023-01-15T04:35:19;7.50;99.90
26803;DHT22;14378;51.796;5.808;2023-01-15T04:37:19;7.50;99.90
26803;DHT22;14378;51.796;5.808;2023-01-15T04:39:21;7.50;99.90
26803;DHT22;14378;51.796;5.808;2023-01-15T04:41:22;7.50;99.90
26803;DHT22;14378;51.796;5.808;2023-01-15T04:43:41;7.50;99.90
26803;DHT22;14378;51.796;5.808;2023-01-15T04:46:01;7.40;99.90
26803;DHT22;14378;51.796;5.808;2023-01-15T04:48:03;7.50;99.90
26803;DHT22;14378;51.796;5.808;2023-01-15T04:50:04;7.40;99.90
26803;DHT22;14378;51.796;5.808;2023-01-15T04:52:05;7.40;99.90
26803;DHT22;14378;51.796;5.808;2023-01-15T04:54:08;7.40;99.90
26803;DHT22;14378;51.796;5.808;2023-01-15T04:56:12;7.30;99.90
26803;DHT22;14378;51.796;5.808;2023-01-15T04:58:13;7.30;99.90
26803;DHT22;14378;51.796;5.808;2023-01-15T05:00:14;7.30;99.90
26803;DHT22;14378;51.796;5.808;2023-01-15T05:02:15;7.30;99.90
26803;DHT22;14378;51.796;5.808;2023-01-15T05:04:16;7.30;99.90
26803;DHT22;14378;51.796;5.808;2023-01-15T05:06:20;7.30;99.90
26803;DHT22;14378;51.796;5.808;2023-01-15T05:08:21;7.30;99.90
26803;DHT22;14378;51.796;5.808;2023-01-15T05:10:22;7.30;99.90
26803;DHT22;14378;51.796;5.808;2023-01-15T05:12:23;7.30;99.90
26803;DHT22;14378;51.796;5.808;2023-01-15T05:14:24;7.20;99.90
26803;DHT22;14378;51.796;5.808;2023-01-15T05:16:26;7.30;99.90
26803;DHT22;14378;51.796;5.808;2023-01-15T05:18:28;7.20;99.90
26803;DHT22;14378;51.796;5.808;2023-01-15T05:20:28;7.20;99.90
26803;DHT22;14378;51.796;5.808;2023-01-15T05:22:29;7.20;99.90
26803;DHT22;14378;51.796;5.808;2023-01-15T05:24:30;7.20;99.90
26803;DHT22;14378;51.796;5.808;2023-01-15T05:26:32;7.20;99.90
26803;DHT22;14378;51.796;5.808;2023-01-15T05:28:33;7.10;99.90
26803;DHT22;14378;51.796;5.808;2023-01-15T05:30:34;7.10;99.90
26803;DHT22;14378;51.796;5.808;2023-01-15T05:32:35;7.20;99.90
26803;DHT22;14378;51.796;5.808;2023-01-15T05:34:36;7.20;99.90
26803;DHT22;14378;51.796;5.808;2023-01-15T05:36:37;7.20;99.90
26803;DHT22;14378;51.796;5.808;2023-01-15T05:38:39;7.20;99.90
26803;DHT22;14378;51.796;5.808;2023-01-15T05:40:41;7.20;99.90
26803;DHT22;14378;51.796;5.808;2023-01-15T05:42:41;7.20;99.90
26803;DHT22;14378;51.796;5.808;2023-01-15T05:44:42;7.20;99.90
26803;DHT22;14378;51.796;5.808;2023-01-15T05:46:45;7.20;99.90
26803;DHT22;14378;51.796;5.808;2023-01-15T05:48:46;7.20;99.90
26803;DHT22;14378;51.796;5.808;2023-01-15T05:50:47;7.10;99.90
26803;DHT22;14378;51.796;5.808;2023-01-15T05:52:48;7.10;99.90
26803;DHT22;14378;51.796;5.808;2023-01-15T05:54:49;7.10;99.90
26803;DHT22;14378;51.796;5.808;2023-01-15T05:56:52;7.10;99.90
26803;DHT22;14378;51.796;5.808;2023-01-15T05:58:53;7.10;99.90
26803;DHT22;14378;51.796;5.808;2023-01-15T06:00:54;7.10;99.90
26803;DHT22;14378;51.796;5.808;2023-01-15T06:02:55;7.10;99.90
26803;DHT22;14378;51.796;5.808;2023-01-15T06:04:56;7.10;99.90
26803;DHT22;14378;51.796;5.808;2023-01-15T06:06:57;7.10;99.90
26803;DHT22;14378;51.796;5.808;2023-01-15T06:08:58;7.10;99.90
26803;DHT22;14378;51.796;5.808;2023-01-15T06:10:59;7.20;99.90
26803;DHT22;14378;51.796;5.808;2023-01-15T06:13:00;7.10;99.90
26803;DHT22;14378;51.796;5.808;2023-01-15T06:15:01;7.10;99.90
26803;DHT22;14378;51.796;5.808;2023-01-15T06:17:02;7.00;99.90
26803;DHT22;14378;51.796;5.808;2023-01-15T06:19:05;7.10;99.90
26803;DHT22;14378;51.796;5.808;2023-01-15T06:21:08;7.10;99.90
26803;DHT22;14378;51.796;5.808;2023-01-15T06:23:09;7.10;99.90
26803;DHT22;14378;51.796;5.808;2023-01-15T06:25:13;7.10;99.90
26803;DHT22;14378;51.796;5.808;2023-01-15T06:27:14;7.10;99.90
26803;DHT22;14378;51.796;5.808;2023-01-15T06:29:15;7.10;99.90
26803;DHT22;14378;51.796;5.808;2023-01-15T06:31:20;7.10;99.90
26803;DHT22;14378;51.796;5.808;2023-01-15T06:33:21;7.10;99.90
26803;DHT22;14378;51.796;5.808;2023-01-15T06:35:23;7.10;99.90
26803;DHT22;14378;51.796;5.808;2023-01-15T06:37:23;7.10;99.90
26803;DHT22;14378;51.796;5.808;2023-01-15T06:39:24;7.10;99.90
26803;DHT22;14378;51.796;5.808;2023-01-15T06:41:25;7.10;99.90
26803;DHT22;14378;51.796;5.808;2023-01-15T06:43:45;7.10;99.90
26803;DHT22;14378;51.796;5.808;2023-01-15T06:46:07;7.10;99.90
26803;DHT22;14378;51.796;5.808;2023-01-15T06:48:27;7.10;99.90
26803;DHT22;14378;51.796;5.808;2023-01-15T06:50:28;7.10;99.90
26803;DHT22;14378;51.796;5.808;2023-01-15T06:52:29;7.00;99.90
26803;DHT22;14378;51.796;5.808;2023-01-15T06:54:31;7.10;99.90
26803;DHT22;14378;51.796;5.808;2023-01-15T06:56:32;7.00;99.90
26803;DHT22;14378;51.796;5.808;2023-01-15T06:58:33;7.00;99.90
26803;DHT22;14378;51.796;5.808;2023-01-15T07:00:34;7.00;99.90
26803;DHT22;14378;51.796;5.808;2023-01-15T07:02:35;7.00;99.90
26803;DHT22;14378;51.796;5.808;2023-01-15T07:04:36;6.90;99.90
26803;DHT22;14378;51.796;5.808;2023-01-15T07:06:45;6.90;99.90
26803;DHT22;14378;51.796;5.808;2023-01-15T07:08:46;6.90;99.90
26803;DHT22;14378;51.796;5.808;2023-01-15T07:10:47;6.90;99.90
26803;DHT22;14378;51.796;5.808;2023-01-15T07:12:48;6.90;99.90
26803;DHT22;14378;51.796;5.808;2023-01-15T07:14:49;6.90;99.90
26803;DHT22;14378;51.796;5.808;2023-01-15T07:16:50;6.90;99.90
26803;DHT22;14378;51.796;5.808;2023-01-15T07:18:54;6.80;99.90
26803;DHT22;14378;51.796;5.808;2023-01-15T07:20:57;6.80;99.90
26803;DHT22;14378;51.796;5.808;2023-01-15T07:22:58;6.80;99.90
26803;DHT22;14378;51.796;5.808;2023-01-15T07:24:59;6.80;99.90
26803;DHT22;14378;51.796;5.808;2023-01-15T07:27:00;6.90;99.90
26803;DHT22;14378;51.796;5.808;2023-01-15T07:29:01;6.90;99.90
26803;DHT22;14378;51.796;5.808;2023-01-15T07:31:03;6.90;99.90
26803;DHT22;14378;51.796;5.808;2023-01-15T07:33:04;6.80;99.90
26803;DHT22;14378;51.796;5.808;2023-01-15T07:35:05;6.80;99.90
26803;DHT22;14378;51.796;5.808;2023-01-15T07:37:06;6.90;99.90
26803;DHT22;14378;51.796;5.808;2023-01-15T07:39:09;6.80;99.90
26803;DHT22;14378;51.796;5.808;2023-01-15T07:41:10;6.90;99.90
26803;DHT22;14378;51.796;5.808;2023-01-15T07:43:30;6.80;99.90
26803;DHT22;14378;51.796;5.808;2023-01-15T07:45:49;6.90;99.90
26803;DHT22;14378;51.796;5.808;2023-01-15T07:48:13;6.80;99.90
26803;DHT22;14378;51.796;5.808;2023-01-15T07:50:32;6.80;99.90
26803;DHT22;14378;51.796;5.808;2023-01-15T07:52:33;6.70;99.90
26803;DHT22;14378;51.796;5.808;2023-01-15T07:54:34;6.70;99.90
26803;DHT22;14378;51.796;5.808;2023-01-15T07:56:38;6.80;99.90
26803;DHT22;14378;51.796;5.808;2023-01-15T07:58:39;6.70;99.90
26803;DHT22;14378;51.796;5.808;2023-01-15T08:00:42;6.80;99.90
26803;DHT22;14378;51.796;5.808;2023-01-15T08:02:43;6.80;99.90
26803;DHT22;14378;51.796;5.808;2023-01-15T08:04:45;6.70;99.90
26803;DHT22;14378;51.796;5.808;2023-01-15T08:06:47;6.70;99.90
26803;DHT22;14378;51.796;5.808;2023-01-15T08:08:48;6.70;99.90
26803;DHT22;14378;51.796;5.808;2023-01-15T08:10:49;6.70;99.90
26803;DHT22;14378;51.796;5.808;2023-01-15T08:13:08;6.80;99.90
26803;DHT22;14378;51.796;5.808;2023-01-15T08:15:32;6.70;99.90
26803;DHT22;14378;51.796;5.808;2023-01-15T08:17:38;6.70;99.90
26803;DHT22;14378;51.796;5.808;2023-01-15T08:19:41;6.70;99.90
26803;DHT22;14378;51.796;5.808;2023-01-15T08:21:42;6.70;99.90
26803;DHT22;14378;51.796;5.808;2023-01-15T08:23:43;6.70;99.90
26803;DHT22;14378;51.796;5.808;2023-01-15T08:25:52;6.60;99.90
26803;DHT22;14378;51.796;5.808;2023-01-15T08:27:53;6.60;99.90
26803;DHT22;14378;51.796;5.808;2023-01-15T08:29:54;6.70;99.90
26803;DHT22;14378;51.796;5.808;2023-01-15T08:31:55;6.60;99.90
26803;DHT22;14378;51.796;5.808;2023-01-15T08:33:56;6.60;99.90
26803;DHT22;14378;51.796;5.808;2023-01-15T08:35:57;6.60;99.90
26803;DHT22;14378;51.796;5.808;2023-01-15T08:37:58;6.70;99.90
26803;DHT22;14378;51.796;5.808;2023-01-15T08:39:59;6.70;99.90
26803;DHT22;14378;51.796;5.808;2023-01-15T08:42:00;6.70;99.90
26803;DHT22;14378;51.796;5.808;2023-01-15T08:44:01;6.70;99.90
26803;DHT22;14378;51.796;5.808;2023-01-15T08:46:02;6.70;99.90
26803;DHT22;14378;51.796;5.808;2023-01-15T08:48:04;6.80;99.90
26803;DHT22;14378;51.796;5.808;2023-01-15T08:50:05;6.80;99.90
26803;DHT22;14378;51.796;5.808;2023-01-15T08:52:08;6.80;99.90
26803;DHT22;14378;51.796;5.808;2023-01-15T08:54:09;6.80;99.90
26803;DHT22;14378;51.796;5.808;2023-01-15T08:56:16;6.90;99.90
26803;DHT22;14378;51.796;5.808;2023-01-15T08:58:18;6.80;99.90
26803;DHT22;14378;51.796;5.808;2023-01-15T09:00:19;6.90;99.90
26803;DHT22;14378;51.796;5.808;2023-01-15T09:02:21;6.80;99.90
26803;DHT22;14378;51.796;5.808;2023-01-15T09:04:22;6.90;99.90
26803;DHT22;14378;51.796;5.808;2023-01-15T09:06:23;6.90;99.90
26803;DHT22;14378;51.796;5.808;2023-01-15T09:08:24;6.90;99.90
26803;DHT22;14378;51.796;5.808;2023-01-15T09:10:25;6.90;99.90
26803;DHT22;14378;51.796;5.808;2023-01-15T09:12:26;6.90;99.90
26803;DHT22;14378;51.796;5.808;2023-01-15T09:14:27;6.90;99.90
26803;DHT22;14378;51.796;5.808;2023-01-15T09:16:28;6.90;99.90
26803;DHT22;14378;51.796;5.808;2023-01-15T09:18:32;7.00;99.90
26803;DHT22;14378;51.796;5.808;2023-01-15T09:20:33;7.00;99.90
26803;DHT22;14378;51.796;5.808;2023-01-15T09:22:34;7.00;99.90
26803;DHT22;14378;51.796;5.808;2023-01-15T09:24:35;7.10;99.90
26803;DHT22;14378;51.796;5.808;2023-01-15T09:26:37;7.10;99.90
26803;DHT22;14378;51.796;5.808;2023-01-15T09:28:38;7.10;99.90
26803;DHT22;14378;51.796;5.808;2023-01-15T09:30:39;7.10;99.90
26803;DHT22;14378;51.796;5.808;2023-01-15T09:32:41;7.10;99.90
26803;DHT22;14378;51.796;5.808;2023-01-15T09:34:42;7.10;99.90
26803;DHT22;14378;51.796;5.808;2023-01-15T09:36:43;7.20;99.90
26803;DHT22;14378;51.796;5.808;2023-01-15T09:38:45;7.20;99.90
26803;DHT22;14378;51.796;5.808;2023-01-15T09:40:52;7.20;99.90
26803;DHT22;14378;51.796;5.808;2023-01-15T09:43:04;7.30;99.90
26803;DHT22;14378;51.796;5.808;2023-01-15T09:47:36;7.30;99.90
26803;DHT22;14378;51.796;5.808;2023-01-15T09:52:19;7.40;99.90
26803;DHT22;14378;51.796;5.808;2023-01-15T09:56:44;7.40;99.90
26803;DHT22;14378;51.796;5.808;2023-01-15T09:58:45;7.50;99.90
26803;DHT22;14378;51.796;5.808;2023-01-15T10:00:49;7.50;99.90
26803;DHT22;14378;51.796;5.808;2023-01-15T10:07:44;7.60;99.90
26803;DHT22;14378;51.796;5.808;2023-01-15T10:09:58;7.70;99.90
26803;DHT22;14378;51.796;5.808;2023-01-15T10:12:21;7.80;99.90
26803;DHT22;14378;51.796;5.808;2023-01-15T10:17:24;7.90;99.90
26803;DHT22;14378;51.796;5.808;2023-01-15T10:19:26;8.00;99.90
26803;DHT22;14378;51.796;5.808;2023-01-15T10:24:00;8.10;99.90
26803;DHT22;14378;51.796;5.808;2023-01-15T10:30:55;8.20;99.90
26803;DHT22;14378;51.796;5.808;2023-01-15T10:32:56;8.30;99.90
26803;DHT22;14378;51.796;5.808;2023-01-15T10:37:20;8.40;99.90
26803;DHT22;14378;51.796;5.808;2023-01-15T10:44:19;8.60;99.90
26803;DHT22;14378;51.796;5.808;2023-01-15T10:46:25;8.60;99.90
26803;DHT22;14378;51.796;5.808;2023-01-15T10:48:33;8.60;99.90
26803;DHT22;14378;51.796;5.808;2023-01-15T10:50:38;8.60;99.90
26803;DHT22;14378;51.796;5.808;2023-01-15T10:52:42;8.60;99.90
26803;DHT22;14378;51.796;5.808;2023-01-15T10:54:48;8.50;99.90
26803;DHT22;14378;51.796;5.808;2023-01-15T10:59:15;8.50;99.90
26803;DHT22;14378;51.796;5.808;2023-01-15T11:01:19;8.50;99.90
26803;DHT22;14378;51.796;5.808;2023-01-15T11:03:47;8.40;99.90
26803;DHT22;14378;51.796;5.808;2023-01-15T11:05:48;8.40;99.90
26803;DHT22;14378;51.796;5.808;2023-01-15T11:07:52;8.30;99.90
26803;DHT22;14378;51.796;5.808;2023-01-15T11:09:52;8.40;99.90
26803;DHT22;14378;51.796;5.808;2023-01-15T11:12:24;8.40;99.90
26803;DHT22;14378;51.796;5.808;2023-01-15T11:14:35;8.30;99.90
26803;DHT22;14378;51.796;5.808;2023-01-15T11:16:55;8.40;99.90
26803;DHT22;14378;51.796;5.808;2023-01-15T11:19:38;8.50;99.90
26803;DHT22;14378;51.796;5.808;2023-01-15T11:21:41;8.50;99.90
26803;DHT22;14378;51.796;5.808;2023-01-15T11:23:43;8.50;99.90
26803;DHT22;14378;51.796;5.808;2023-01-15T11:25:53;8.50;99.90
26803;DHT22;14378;51.796;5.808;2023-01-15T11:27:56;8.50;99.90
26803;DHT22;14378;51.796;5.808;2023-01-15T11:29:59;8.30;99.90
26803;DHT22;14378;51.796;5.808;2023-01-15T11:32:01;8.30;99.90
26803;DHT22;14378;51.796;5.808;2023-01-15T11:34:21;8.30;99.90
26803;DHT22;14378;51.796;5.808;2023-01-15T11:36:26;8.40;99.90
26803;DHT22;14378;51.796;5.808;2023-01-15T11:38:35;8.50;99.90
26803;DHT22;14378;51.796;5.808;2023-01-15T11:40:37;8.40;99.90
26803;DHT22;14378;51.796;5.808;2023-01-15T11:42:38;8.40;99.90
26803;DHT22;14378;51.796;5.808;2023-01-15T11:45:18;8.40;99.90
26803;DHT22;14378;51.796;5.808;2023-01-15T11:47:38;8.30;99.90
26803;DHT22;14378;51.796;5.808;2023-01-15T11:49:58;8.40;99.90
26803;DHT22;14378;51.796;5.808;2023-01-15T11:52:23;8.40;99.90
26803;DHT22;14378;51.796;5.808;2023-01-15T11:54:25;8.40;99.90
26803;DHT22;14378;51.796;5.808;2023-01-15T11:56:28;8.50;99.90
26803;DHT22;14378;51.796;5.808;2023-01-15T11:58:41;8.60;99.90
26803;DHT22;14378;51.796;5.808;2023-01-15T12:00:49;8.60;99.90
26803;DHT22;14378;51.796;5.808;2023-01-15T12:02:54;8.70;99.90
26803;DHT22;14378;51.796;5.808;2023-01-15T12:05:01;8.90;99.90
26803;DHT22;14378;51.796;5.808;2023-01-15T12:07:05;9.00;99.90
26803;DHT22;14378;51.796;5.808;2023-01-15T12:11:38;9.00;99.90
26803;DHT22;14378;51.796;5.808;2023-01-15T12:20:52;9.10;99.90
26803;DHT22;14378;51.796;5.808;2023-01-15T12:23:39;9.00;99.90
26803;DHT22;14378;51.796;5.808;2023-01-15T12:28:22;8.80;99.90
26803;DHT22;14378;51.796;5.808;2023-01-15T12:30:37;8.70;99.90
26803;DHT22;14378;51.796;5.808;2023-01-15T12:32:46;8.60;99.90
26803;DHT22;14378;51.796;5.808;2023-01-15T12:35:09;8.60;99.90
26803;DHT22;14378;51.796;5.808;2023-01-15T12:37:27;8.60;99.90
26803;DHT22;14378;51.796;5.808;2023-01-15T12:39:39;8.70;99.90
26803;DHT22;14378;51.796;5.808;2023-01-15T12:41:46;8.70;99.90
26803;DHT22;14378;51.796;5.808;2023-01-15T12:44:33;8.60;99.90
26803;DHT22;14378;51.796;5.808;2023-01-15T12:46:54;8.50;99.90
26803;DHT22;14378;51.796;5.808;2023-01-15T12:49:18;8.50;99.90
26803;DHT22;14378;51.796;5.808;2023-01-15T12:51:28;8.50;99.90
26803;DHT22;14378;51.796;5.808;2023-01-15T12:53:55;8.40;99.90
26803;DHT22;14378;51.796;5.808;2023-01-15T12:56:18;8.30;99.90
26803;DHT22;14378;51.796;5.808;2023-01-15T12:59:01;8.30;99.90
26803;DHT22;14378;51.796;5.808;2023-01-15T13:03:29;8.10;99.90
26803;DHT22;14378;51.796;5.808;2023-01-15T13:05:40;8.10;99.90
26803;DHT22;14378;51.796;5.808;2023-01-15T13:10:30;8.20;99.90
26803;DHT22;14378;51.796;5.808;2023-01-15T13:12:35;8.20;99.90
26803;DHT22;14378;51.796;5.808;2023-01-15T13:14:36;8.30;99.90
26803;DHT22;14378;51.796;5.808;2023-01-15T13:19:04;8.40;99.90
26803;DHT22;14378;51.796;5.808;2023-01-15T13:21:14;8.40;99.90
26803;DHT22;14378;51.796;5.808;2023-01-15T13:23:32;8.40;99.90
26803;DHT22;14378;51.796;5.808;2023-01-15T13:26:06;8.40;99.90
26803;DHT22;14378;51.796;5.808;2023-01-15T13:28:37;8.40;99.90
26803;DHT22;14378;51.796;5.808;2023-01-15T13:31:11;8.40;99.90
26803;DHT22;14378;51.796;5.808;2023-01-15T13:33:27;8.40;99.90
26803;DHT22;14378;51.796;5.808;2023-01-15T13:35:32;8.40;99.90
26803;DHT22;14378;51.796;5.808;2023-01-15T13:37:39;8.40;99.90
26803;DHT22;14378;51.796;5.808;2023-01-15T13:39:44;8.40;99.90
26803;DHT22;14378;51.796;5.808;2023-01-15T13:41:56;8.30;99.90
26803;DHT22;14378;51.796;5.808;2023-01-15T13:44:29;8.20;99.90
26803;DHT22;14378;51.796;5.808;2023-01-15T13:46:31;8.20;99.90
26803;DHT22;14378;51.796;5.808;2023-01-15T13:48:47;8.00;99.90
26803;DHT22;14378;51.796;5.808;2023-01-15T13:50:52;7.90;99.90
26803;DHT22;14378;51.796;5.808;2023-01-15T13:55:39;7.70;99.90
26803;DHT22;14378;51.796;5.808;2023-01-15T13:57:42;7.70;99.90
26803;DHT22;14378;51.796;5.808;2023-01-15T13:59:44;7.70;99.90
26803;DHT22;14378;51.796;5.808;2023-01-15T14:01:46;7.70;99.90
26803;DHT22;14378;51.796;5.808;2023-01-15T14:06:09;7.80;99.90
26803;DHT22;14378;51.796;5.808;2023-01-15T14:08:24;7.80;99.90
26803;DHT22;14378;51.796;5.808;2023-01-15T14:10:34;7.80;99.90
26803;DHT22;14378;51.796;5.808;2023-01-15T14:22:39;7.70;99.90
26803;DHT22;14378;51.796;5.808;2023-01-15T14:36:24;7.40;99.90
26803;DHT22;14378;51.796;5.808;2023-01-15T14:38:27;7.50;99.90
26803;DHT22;14378;51.796;5.808;2023-01-15T14:40:31;7.50;99.90
26803;DHT22;14378;51.796;5.808;2023-01-15T14:42:37;7.50;99.90
26803;DHT22;14378;51.796;5.808;2023-01-15T14:47:29;7.60;99.90
26803;DHT22;14378;51.796;5.808;2023-01-15T14:49:31;7.60;99.90
26803;DHT22;14378;51.796;5.808;2023-01-15T14:51:48;7.60;99.90
26803;DHT22;14378;51.796;5.808;2023-01-15T14:53:56;7.60;99.90
26803;DHT22;14378;51.796;5.808;2023-01-15T15:00:49;7.60;99.90
26803;DHT22;14378;51.796;5.808;2023-01-15T15:02:52;7.60;99.90
26803;DHT22;14378;51.796;5.808;2023-01-15T15:04:54;7.60;99.90
26803;DHT22;14378;51.796;5.808;2023-01-15T15:07:10;7.80;99.90
26803;DHT22;14378;51.796;5.808;2023-01-15T15:09:13;7.70;99.90
26803;DHT22;14378;51.796;5.808;2023-01-15T15:11:33;7.70;99.90
26803;DHT22;14378;51.796;5.808;2023-01-15T15:13:55;7.70;99.90
26803;DHT22;14378;51.796;5.808;2023-01-15T15:16:18;7.70;99.90
26803;DHT22;14378;51.796;5.808;2023-01-15T15:18:47;7.70;99.90
26803;DHT22;14378;51.796;5.808;2023-01-15T15:23:07;7.60;99.90
26803;DHT22;14378;51.796;5.808;2023-01-15T15:25:13;7.70;99.90
26803;DHT22;14378;51.796;5.808;2023-01-15T15:27:19;7.70;99.90
26803;DHT22;14378;51.796;5.808;2023-01-15T15:29:21;7.80;99.90
26803;DHT22;14378;51.796;5.808;2023-01-15T15:31:22;7.80;99.90